Cawthorne, United Kingdom
Current Conditions -  °F | °C
As of 12:50 PM on Tuesday 21 Oct 2014 (Local Time) from EGNM Reporting Station
Scattered Clouds Scattered Clouds  
Wind Chill: 40°   Ceiling: Unl
Heat Index: 48°   Visibility: 6mi
Dew Point: 41°   Wind: 30mph
Humidity: 76%   Direction: 280°W
Pressure: 29.5"   Gusts: 46mph
Location:  53.57°N, 1.58°W
Report Text: EGNM 211150Z 28026G40KT 9999 FEW010 SCT025CB 09/05 Q0999
Loading
Personal Weather Stations






























Interactive Weather Map
Tropical Storm Tracking
New forecast layout! Learn more

10-Day Weather Forecast

Advertisements
Track Severe Weather on mobile